Time;durP1;ratioP1;P1;durP2;ratioP2;P2;SDS_P1;SDS_P2;PMS_P1;PMS_P2;Temp;Humidity;BMP_temperature;BMP_pressure;BME280_temperature;BME280_humidity;BME280_pressure;Samples;Min_cycle;Max_cycle;Signal;HPM_P1;HPM_P2
2022/12/24 00:01:22;;;;;;;43.90;8.20;;;12.60;99.90;;;11.72;100.00;101039.41;4168975;28;20028;-71
2022/12/24 00:03:23;;;;;;;48.83;8.77;;;12.60;99.90;;;11.74;100.00;101048.84;4168105;28;20057;-71
2022/12/24 00:05:24;;;;;;;52.35;8.63;;;12.60;99.90;;;11.75;100.00;101044.38;4168269;28;20033;-71
2022/12/24 00:07:25;;;;;;;55.20;10.15;;;12.60;99.90;;;11.86;100.00;101052.88;4169146;28;20032;-71
2022/12/24 00:09:26;;;;;;;54.28;7.75;;;12.60;99.90;;;11.77;100.00;101045.88;4167715;28;20017;-71
2022/12/24 00:11:27;;;;;;;57.70;10.30;;;12.60;99.90;;;11.80;100.00;101040.28;4169307;28;20044;-71
2022/12/24 00:13:28;;;;;;;50.70;9.48;;;12.60;99.90;;;11.74;100.00;101038.28;4169158;28;20033;-71
2022/12/24 00:15:29;;;;;;;55.42;10.25;;;12.60;99.90;;;11.72;100.00;101048.19;4168675;28;20041;-71
2022/12/24 00:17:30;;;;;;;52.28;8.20;;;12.60;99.90;;;11.70;100.00;101054.59;4167401;28;20033;-71
2022/12/24 00:19:31;;;;;;;57.28;9.90;;;12.50;99.90;;;11.65;100.00;101050.56;4167783;28;20033;-71
2022/12/24 00:21:32;;;;;;;51.05;8.57;;;12.60;99.90;;;11.68;100.00;101062.66;4167772;28;20033;-71
2022/12/24 00:23:33;;;;;;;45.40;7.45;;;12.60;99.90;;;11.71;100.00;101065.00;4167766;28;20370;-72
2022/12/24 00:25:34;;;;;;;51.90;7.63;;;12.50;99.90;;;11.70;100.00;101066.00;4167749;28;20021;-71
2022/12/24 00:27:34;;;;;;;49.95;6.90;;;12.50;99.90;;;11.69;100.00;101072.25;4168941;28;20437;-71
2022/12/24 00:29:35;;;;;;;48.47;6.80;;;12.50;99.90;;;11.68;100.00;101069.75;4167738;28;20048;-71
2022/12/24 00:31:36;;;;;;;34.83;6.53;;;12.50;99.90;;;11.64;100.00;101069.25;4168714;28;20112;-71
2022/12/24 00:33:38;;;;;;;49.60;7.28;;;12.50;99.90;;;11.64;100.00;101075.38;4167748;28;20029;-71
2022/12/24 00:35:39;;;;;;;41.13;5.97;;;12.50;99.90;;;11.60;100.00;101073.16;4168715;28;20026;-71
2022/12/24 00:37:40;;;;;;;45.78;7.68;;;12.50;99.90;;;11.61;100.00;101064.25;4169060;28;20083;-71
2022/12/24 00:39:41;;;;;;;36.60;5.80;;;12.50;99.90;;;11.57;100.00;101068.19;4151299;28;20478;-71
2022/12/24 00:41:42;;;;;;;38.45;8.18;;;12.50;99.90;;;11.56;100.00;101063.88;4168933;28;20026;-71
2022/12/24 00:43:43;;;;;;;42.22;7.13;;;12.40;99.90;;;11.57;100.00;101068.19;4167026;28;20057;-71
2022/12/24 00:45:44;;;;;;;45.45;8.00;;;12.40;99.90;;;11.54;100.00;101064.03;4168657;28;20021;-71
2022/12/24 00:47:45;;;;;;;40.20;6.60;;;12.40;99.90;;;11.49;100.00;101060.22;4167545;28;20048;-71
2022/12/24 00:49:45;;;;;;;31.55;6.47;;;12.40;99.90;;;11.41;100.00;101045.13;4168654;28;20489;-71
2022/12/24 00:51:46;;;;;;;44.15;8.00;;;12.30;99.90;;;11.45;100.00;101064.97;4167497;28;20481;-71
2022/12/24 00:53:48;;;;;;;42.83;6.95;;;12.30;99.90;;;11.45;100.00;101059.69;4168651;28;20021;-71
2022/12/24 00:55:49;;;;;;;37.85;7.80;;;12.30;99.90;;;11.42;100.00;101060.00;4168693;28;20048;-71
2022/12/24 00:57:49;;;;;;;39.95;6.60;;;12.30;99.90;;;11.38;100.00;101057.81;4168657;28;20034;-71
2022/12/24 00:59:50;;;;;;;45.45;6.57;;;12.30;99.90;;;11.42;100.00;101049.44;4168451;28;20033;-71
2022/12/24 01:01:51;;;;;;;41.30;7.38;;;12.30;99.90;;;11.46;100.00;101048.16;4168361;28;20030;-71
2022/12/24 01:05:09;;;;;;;41.63;7.40;;;12.30;99.90;;;11.49;100.00;101049.66;4168613;28;20025;-71
2022/12/24 01:06:20;;;;;;;41.67;6.57;;;12.30;99.90;;;11.54;100.00;101044.72;4167334;28;20026;-71
2022/12/24 01:08:21;;;;;;;47.28;8.40;;;12.30;99.90;;;11.53;100.00;101035.97;4167118;28;20064;-71
2022/12/24 01:10:22;;;;;;;35.95;7.70;;;12.30;99.90;;;11.49;100.00;101033.78;4160575;28;20088;-71
2022/12/24 01:12:24;;;;;;;43.38;8.13;;;12.30;99.90;;;11.55;100.00;101035.81;4168621;28;20036;-71
2022/12/24 01:14:25;;;;;;;48.58;7.18;;;12.30;99.90;;;11.53;100.00;101027.19;4167137;28;20584;-71
2022/12/24 01:16:25;;;;;;;40.00;6.53;;;12.30;99.90;;;11.48;100.00;101035.59;4168175;28;20115;-71
2022/12/24 01:18:27;;;;;;;43.85;7.22;;;12.30;99.90;;;11.48;100.00;101038.25;4167247;28;20061;-71
2022/12/24 01:20:30;;;;;;;36.88;8.13;;;12.30;99.90;;;11.46;100.00;101049.97;4167274;28;20029;-71
2022/12/24 01:22:31;;;;;;;41.38;7.90;;;12.30;99.90;;;11.46;100.00;101052.59;4166611;28;20024;-71
2022/12/24 01:24:32;;;;;;;48.03;7.93;;;12.30;99.90;;;11.51;100.00;101053.78;4167268;28;20397;-71
2022/12/24 01:26:32;;;;;;;40.83;7.38;;;12.30;99.90;;;11.48;100.00;101058.53;4168611;28;20500;-71
2022/12/24 01:28:33;;;;;;;44.63;6.63;;;12.30;99.90;;;11.45;100.00;101061.50;4167164;28;20018;-71
2022/12/24 01:30:34;;;;;;;40.55;6.55;;;12.30;99.90;;;11.44;100.00;101067.78;4168087;28;20021;-71
2022/12/24 01:32:35;;;;;;;41.03;6.63;;;12.30;99.90;;;11.40;100.00;101055.84;4168453;28;20036;-71
2022/12/24 01:34:36;;;;;;;27.67;5.57;;;12.30;99.90;;;11.40;100.00;101061.97;4167203;28;20596;-71
2022/12/24 01:36:37;;;;;;;46.63;7.32;;;12.30;99.90;;;11.44;100.00;101046.66;4168300;28;20069;-71
2022/12/24 01:38:39;;;;;;;41.55;6.35;;;12.30;99.90;;;11.46;100.00;101050.78;4168152;28;20567;-71
2022/12/24 01:45:44;;;;;;;35.95;6.35;;;12.20;99.90;;;11.45;100.00;101027.16;4167483;28;20609;-71
2022/12/24 01:47:44;;;;;;;48.65;7.05;;;12.20;99.90;;;11.45;100.00;101024.50;4168304;28;20025;-71
2022/12/24 01:50:02;;;;;;;36.05;6.82;;;12.20;99.90;;;11.43;100.00;101042.34;4166875;28;20520;-71
2022/12/24 01:52:36;;;;;;;38.00;6.53;;;12.30;99.90;;;11.41;100.00;101046.97;4167119;28;20056;-71
2022/12/24 01:54:53;;;;;;;45.58;6.88;;;12.30;99.90;;;11.44;100.00;101036.88;4164830;28;20469;-71
2022/12/24 01:57:18;;;;;;;33.55;6.15;;;12.30;99.90;;;11.40;100.00;101043.47;4171287;28;20122;-71
2022/12/24 01:59:20;;;;;;;38.20;6.82;;;12.30;99.90;;;11.48;100.00;101047.97;4170024;28;20411;-71
2022/12/24 02:01:21;;;;;;;39.70;6.93;;;12.30;99.90;;;11.45;100.00;101038.56;4169828;28;20037;-71
2022/12/24 02:03:22;;;;;;;31.83;6.38;;;12.30;99.90;;;11.58;100.00;101038.16;4153537;28;20026;-71
2022/12/24 02:05:45;;;;;;;43.28;8.55;;;12.30;99.90;;;11.57;100.00;101037.31;4169956;28;20370;-71
2022/12/24 02:07:47;;;;;;;45.40;6.30;;;12.40;99.90;;;11.53;100.00;101032.47;4170055;28;20157;-71
2022/12/24 02:09:55;;;;;;;33.33;5.15;;;12.40;99.90;;;11.51;100.00;101032.66;4169882;28;20115;-71
2022/12/24 02:11:56;;;;;;;31.88;4.43;;;12.40;99.90;;;11.48;100.00;101032.13;4171058;28;20104;-71
2022/12/24 02:14:00;;;;;;;26.67;4.65;;;12.40;99.90;;;11.47;100.00;101036.56;4169676;28;20029;-71
2022/12/24 02:16:26;;;;;;;36.00;5.63;;;12.40;99.90;;;11.53;100.00;101050.97;4169213;28;20045;-71
2022/12/24 02:18:39;;;;;;;38.88;5.80;;;12.40;99.90;;;11.50;100.00;101056.56;4171169;28;20033;-71
2022/12/24 02:21:21;;;;;;;37.95;5.28;;;12.30;99.90;;;11.56;100.00;101048.03;4170873;28;20018;-71
2022/12/24 02:24:13;;;;;;;28.35;4.50;;;12.40;99.90;;;11.55;100.00;101059.59;4170583;28;20045;-71
2022/12/24 02:26:52;;;;;;;39.47;6.43;;;12.40;99.90;;;11.58;100.00;101061.94;4170066;28;20033;-71
2022/12/24 02:29:17;;;;;;;41.72;7.45;;;12.40;99.90;;;11.61;100.00;101069.56;4170715;28;20033;-71
2022/12/24 02:31:24;;;;;;;39.47;5.53;;;12.40;99.90;;;11.57;100.00;101062.91;4170647;28;20033;-71
2022/12/24 02:33:34;;;;;;;38.72;6.65;;;12.40;99.90;;;11.59;100.00;101071.50;4170822;28;20035;-71
2022/12/24 02:35:58;;;;;;;29.23;6.30;;;12.40;99.90;;;11.58;100.00;101085.72;4170534;28;20032;-71
2022/12/24 02:38:15;;;;;;;42.78;5.63;;;12.40;99.90;;;11.54;100.00;101087.00;4169566;28;20396;-71
2022/12/24 02:40:28;;;;;;;40.15;6.30;;;12.40;99.90;;;11.57;100.00;101086.69;4169215;28;20021;-71
2022/12/24 02:42:47;;;;;;;26.02;5.70;;;12.40;99.90;;;11.58;100.00;101080.44;4169394;28;20547;-71
2022/12/24 02:45:01;;;;;;;36.42;5.13;;;12.40;99.90;;;11.61;100.00;101082.75;4153216;28;20164;-71
2022/12/24 02:47:03;;;;;;;42.13;5.28;;;12.40;99.90;;;11.57;100.00;101089.31;4169033;28;20064;-71
2022/12/24 02:49:05;;;;;;;29.50;4.75;;;12.40;99.90;;;11.53;100.00;101080.03;4169241;28;20049;-71
2022/12/24 02:51:08;;;;;;;32.92;4.95;;;12.40;99.90;;;11.56;100.00;101088.50;4168754;28;20075;-71
2022/12/24 02:53:09;;;;;;;29.45;5.47;;;12.40;99.90;;;11.59;100.00;101090.81;4170368;28;20260;-71
2022/12/24 02:55:32;;;;;;;41.65;6.97;;;12.40;99.90;;;11.63;100.00;101086.06;4170181;28;20041;-71
2022/12/24 02:58:04;;;;;;;37.95;8.07;;;12.40;99.90;;;11.64;100.00;101085.94;4170310;28;20017;-71
2022/12/24 03:00:19;;;;;;;27.48;6.32;;;12.40;99.90;;;11.64;100.00;101090.38;4169138;28;20025;-71
2022/12/24 03:03:14;;;;;;;29.63;4.55;;;12.40;99.90;;;11.62;100.00;101084.41;4168763;28;20029;-71
2022/12/24 03:05:37;;;;;;;34.85;5.95;;;12.50;99.90;;;11.64;100.00;101082.44;4095833;28;20043;-71
2022/12/24 03:08:02;;;;;;;22.92;4.82;;;12.40;99.90;;;11.57;100.00;101092.81;4166116;28;20014;-72
2022/12/24 03:10:21;;;;;;;31.85;5.03;;;12.40;99.90;;;11.62;100.00;101100.25;4169979;28;20156;-71
2022/12/24 03:12:39;;;;;;;28.10;7.18;;;12.40;99.90;;;11.56;100.00;101092.94;4168566;28;20029;-71
2022/12/24 03:14:42;;;;;;;28.92;4.45;;;12.40;99.90;;;11.55;100.00;101107.16;4168389;28;20053;-71
2022/12/24 03:16:45;;;;;;;25.08;4.93;;;12.40;99.90;;;11.57;100.00;101099.91;4168481;28;20056;-71
2022/12/24 03:18:49;;;;;;;29.25;4.88;;;12.40;99.90;;;11.58;100.00;101099.75;4168669;28;20064;-71
2022/12/24 03:21:04;;;;;;;23.55;4.68;;;12.40;99.90;;;11.65;100.00;101097.31;4168788;28;20539;-71
2022/12/24 03:23:05;;;;;;;28.45;4.63;;;12.40;99.90;;;11.55;100.00;101086.84;4169899;28;20091;-71
2022/12/24 03:25:07;;;;;;;34.38;6.20;;;12.40;99.90;;;11.56;100.00;101082.38;4168653;28;20030;-71
2022/12/24 03:27:10;;;;;;;25.52;4.75;;;12.40;99.90;;;11.57;100.00;101084.03;4169860;28;20071;-71
2022/12/24 03:29:12;;;;;;;25.52;4.05;;;12.30;99.90;;;11.54;100.00;101092.28;4168641;28;20018;-71
2022/12/24 03:31:14;;;;;;;22.48;3.90;;;12.40;99.90;;;11.50;100.00;101075.06;4168472;28;20083;-71
2022/12/24 03:33:16;;;;;;;20.52;3.80;;;12.40;99.90;;;11.47;100.00;101086.78;4169759;28;20061;-71
2022/12/24 03:35:17;;;;;;;17.33;4.03;;;12.40;99.90;;;11.46;100.00;101079.84;4168479;28;20041;-71
2022/12/24 03:37:18;;;;;;;19.25;4.70;;;12.40;99.90;;;11.40;100.00;101082.25;4168730;28;20025;-71
2022/12/24 03:39:19;;;;;;;18.83;3.45;;;12.30;99.90;;;11.45;100.00;101087.91;4169648;28;20529;-71
2022/12/24 03:41:20;;;;;;;17.00;3.35;;;12.30;99.90;;;11.43;100.00;101079.31;4168383;28;20103;-71
2022/12/24 03:43:21;;;;;;;26.00;4.63;;;12.30;99.90;;;11.40;100.00;101069.06;4168282;28;20143;-71
2022/12/24 03:45:23;;;;;;;18.00;4.05;;;12.20;99.90;;;11.39;100.00;101067.38;4168589;28;20143;-71
2022/12/24 03:47:24;;;;;;;17.60;3.47;;;12.20;99.90;;;11.36;100.00;101060.59;4184507;28;20404;-71
2022/12/24 03:49:25;;;;;;;16.40;3.28;;;12.20;99.90;;;11.42;100.00;101060.00;4168118;28;20034;-71
2022/12/24 03:51:27;;;;;;;18.80;3.03;;;12.20;99.90;;;11.47;100.00;101062.16;4169662;28;20021;-71
2022/12/24 03:53:28;;;;;;;27.17;4.20;;;12.20;99.90;;;11.56;100.00;101066.53;4165860;28;20052;-71
2022/12/24 03:55:29;;;;;;;28.92;4.18;;;12.30;99.90;;;11.48;100.00;101062.03;4158467;28;20022;-71
2022/12/24 03:57:29;;;;;;;26.45;3.83;;;12.30;99.90;;;11.50;100.00;101057.41;4169324;28;20061;-71
2022/12/24 03:59:30;;;;;;;25.38;5.63;;;12.30;99.90;;;11.56;100.00;101048.03;4169409;28;20032;-71
2022/12/24 04:01:31;;;;;;;29.38;4.38;;;12.30;99.90;;;11.51;100.00;101053.78;4168870;28;20034;-71
2022/12/24 04:03:32;;;;;;;31.75;5.50;;;12.30;99.90;;;11.51;100.00;101056.44;4169297;28;20029;-71
2022/12/24 04:05:33;;;;;;;29.42;5.50;;;12.30;99.90;;;11.47;100.00;101052.44;4151616;28;20026;-71
2022/12/24 04:07:34;;;;;;;29.05;5.22;;;12.30;99.90;;;11.44;100.00;101049.28;4169415;28;20025;-71
2022/12/24 04:09:35;;;;;;;33.30;6.45;;;12.30;99.90;;;11.41;100.00;101057.53;4167871;28;20040;-71
2022/12/24 04:11:36;;;;;;;27.08;3.75;;;12.30;99.90;;;11.35;100.00;101056.28;4167929;28;20034;-71
2022/12/24 04:13:37;;;;;;;38.78;5.72;;;12.30;99.90;;;11.32;100.00;101047.88;4167970;28;20029;-71
2022/12/24 04:15:38;;;;;;;20.88;4.28;;;12.20;99.90;;;11.30;100.00;101049.81;4168769;28;20029;-71
2022/12/24 04:17:39;;;;;;;32.65;5.75;;;12.10;99.90;;;11.33;100.00;101044.22;4168836;28;20056;-71
2022/12/24 04:19:40;;;;;;;30.77;4.05;;;12.10;99.90;;;11.30;100.00;101045.38;4169459;28;20061;-71
2022/12/24 04:21:41;;;;;;;27.58;6.20;;;12.20;99.90;;;11.38;100.00;101039.34;4167837;28;20030;-71
2022/12/24 04:23:42;;;;;;;25.52;6.10;;;12.20;99.90;;;11.39;100.00;101047.09;4169007;28;20017;-71
2022/12/24 04:25:43;;;;;;;26.27;5.20;;;12.20;99.90;;;11.36;100.00;101043.94;4168866;28;20030;-71
2022/12/24 04:27:44;;;;;;;25.45;3.70;;;12.20;99.90;;;11.39;100.00;101043.63;4169081;28;20029;-71
2022/12/24 04:29:44;;;;;;;32.35;5.45;;;12.20;99.90;;;11.32;100.00;101042.59;4169231;28;20029;-71
2022/12/24 04:31:45;;;;;;;21.77;4.13;;;12.20;99.90;;;11.37;100.00;101057.00;4168833;28;20075;-71
2022/12/24 04:33:46;;;;;;;24.40;3.95;;;12.20;99.90;;;11.42;100.00;101051.22;4168937;28;20057;-71
2022/12/24 04:35:47;;;;;;;27.10;3.90;;;12.20;99.90;;;11.39;100.00;101041.81;4168004;28;20029;-71
2022/12/24 04:37:48;;;;;;;27.65;3.78;;;12.20;99.90;;;11.47;100.00;101035.75;4167785;28;20088;-70
2022/12/24 04:39:49;;;;;;;21.45;5.50;;;12.20;99.90;;;11.46;100.00;101042.88;4167673;28;20025;-71
2022/12/24 04:41:50;;;;;;;26.30;3.42;;;12.30;99.90;;;11.44;100.00;101031.59;4168598;28;20113;-71
2022/12/24 04:43:53;;;;;;;29.85;3.60;;;12.20;99.90;;;11.44;100.00;101014.94;4167455;28;20017;-71
2022/12/24 04:45:54;;;;;;;20.80;3.85;;;12.30;99.90;;;11.44;100.00;101020.22;4167549;28;20068;-70
2022/12/24 04:47:55;;;;;;;20.50;3.40;;;12.30;99.90;;;11.43;100.00;101015.91;4184283;28;20059;-71
2022/12/24 04:49:56;;;;;;;31.75;4.88;;;12.30;99.90;;;11.49;100.00;101012.66;4168683;28;20030;-71
2022/12/24 04:51:57;;;;;;;19.98;3.97;;;12.30;99.90;;;11.45;100.00;101006.84;4168716;28;20032;-71
2022/12/24 04:53:58;;;;;;;25.70;3.85;;;12.30;99.90;;;11.38;100.00;101015.56;4161019;28;20018;-71
2022/12/24 04:55:59;;;;;;;22.80;5.72;;;12.20;99.90;;;11.31;100.00;101017.16;4193738;28;20032;-71
2022/12/24 04:58:00;;;;;;;22.35;4.53;;;12.20;99.90;;;11.27;100.00;101029.84;4168634;28;20410;-71
2022/12/24 05:00:03;;;;;;;20.65;3.13;;;12.10;99.90;;;11.24;100.00;101034.59;4167475;28;20037;-71
2022/12/24 05:02:03;;;;;;;25.67;4.32;;;12.10;99.90;;;11.21;100.00;101045.44;4167099;28;20045;-71
2022/12/24 05:04:05;;;;;;;28.92;3.78;;;12.00;99.90;;;11.11;100.00;101041.09;4168592;28;20394;-71
2022/12/24 05:06:11;;;;;;;26.77;5.05;;;12.00;99.90;;;11.06;100.00;101034.59;4168557;28;20078;-71
2022/12/24 05:08:13;;;;;;;22.50;4.50;;;11.90;99.90;;;11.04;100.00;101042.69;4150951;28;20030;-71
2022/12/24 05:10:14;;;;;;;21.92;3.25;;;12.00;99.90;;;10.99;100.00;101029.09;4167433;28;20101;-71
2022/12/24 05:12:15;;;;;;;23.55;3.53;;;11.90;99.90;;;11.02;100.00;101031.44;4167334;28;20052;-71
2022/12/24 05:14:16;;;;;;;18.40;3.20;;;11.90;99.90;;;10.97;100.00;101033.72;4168393;28;20030;-70
2022/12/24 05:16:19;;;;;;;29.60;4.93;;;11.80;99.90;;;10.94;100.00;101023.44;4166929;28;20060;-71
2022/12/24 05:18:21;;;;;;;19.35;3.45;;;11.80;99.90;;;10.93;100.00;101037.63;4167293;28;20038;-71
2022/12/24 05:20:21;;;;;;;27.95;4.05;;;11.80;99.90;;;10.95;100.00;101027.75;4160740;28;20072;-71
2022/12/24 05:27:01;;;;;;;22.65;3.08;;;11.80;99.90;;;11.00;100.00;101028.13;4167627;28;20060;-71
2022/12/24 05:29:05;;;;;;;18.90;4.03;;;11.90;99.90;;;11.08;100.00;101019.44;4169872;28;20029;-71
2022/12/24 05:31:06;;;;;;;22.67;3.67;;;11.90;99.90;;;11.07;100.00;101013.34;4171483;28;20053;-71
2022/12/24 05:33:07;;;;;;;18.95;3.17;;;11.90;99.90;;;11.14;100.00;101013.53;4170352;28;20096;-71
2022/12/24 05:35:08;;;;;;;18.90;4.00;;;11.90;99.90;;;11.13;100.00;101006.63;4171569;28;20092;-71
2022/12/24 05:37:09;;;;;;;19.42;3.80;;;12.00;99.90;;;11.25;100.00;101008.03;4171463;28;20032;-71
2022/12/24 05:39:15;;;;;;;20.58;3.25;;;12.00;99.90;;;11.25;100.00;101013.31;4171546;28;20029;-71
2022/12/24 05:41:17;;;;;;;28.95;4.15;;;12.00;99.90;;;11.26;100.00;101001.75;4171569;28;20400;-72
2022/12/24 05:43:18;;;;;;;27.25;4.13;;;12.00;99.90;;;11.19;100.00;100994.63;4171335;28;20029;-71
2022/12/24 05:45:19;;;;;;;23.80;5.05;;;12.10;99.90;;;11.27;100.00;100994.66;4171564;28;20028;-71
2022/12/24 05:47:20;;;;;;;26.65;3.53;;;12.10;99.90;;;11.30;100.00;100989.06;4171561;28;20481;-71
2022/12/24 05:49:21;;;;;;;29.77;4.57;;;12.10;99.90;;;11.31;100.00;100998.66;4170230;28;20496;-71
2022/12/24 05:51:22;;;;;;;28.63;4.75;;;12.10;99.90;;;11.28;100.00;100998.97;4171361;28;20053;-71
2022/12/24 05:53:23;;;;;;;32.33;3.78;;;12.10;99.90;;;11.30;100.00;101002.28;4168239;28;20024;-71
2022/12/24 05:55:25;;;;;;;24.02;4.45;;;12.10;99.90;;;11.37;100.00;100996.25;4158826;28;20413;-71
2022/12/24 05:57:26;;;;;;;24.30;3.85;;;12.20;99.90;;;11.37;100.00;100998.88;4171303;28;20028;-71
2022/12/24 05:59:27;;;;;;;34.53;5.63;;;12.20;99.90;;;11.42;100.00;101001.03;4170096;28;20036;-71
2022/12/24 06:01:28;;;;;;;31.67;4.53;;;12.20;99.90;;;11.40;100.00;100997.75;4169634;28;20480;-71
2022/12/24 06:03:30;;;;;;;24.27;3.58;;;12.20;99.90;;;11.38;100.00;100989.16;4171213;28;20108;-71
2022/12/24 06:05:31;;;;;;;26.00;4.07;;;12.20;99.90;;;11.41;100.00;100996.78;4169961;28;20021;-71
2022/12/24 06:07:32;;;;;;;22.88;4.18;;;12.20;99.90;;;11.44;100.00;100999.09;4169758;28;20033;-71
2022/12/24 06:09:33;;;;;;;31.50;5.55;;;12.30;99.90;;;11.46;100.00;100987.38;4171102;28;20040;-71
2022/12/24 06:11:34;;;;;;;25.42;3.67;;;12.30;99.90;;;11.43;100.00;100994.78;4171102;28;20025;-71
2022/12/24 06:13:36;;;;;;;22.35;3.50;;;12.30;99.90;;;11.43;100.00;100997.44;4169858;28;20478;-70
2022/12/24 06:15:37;;;;;;;23.70;4.57;;;12.30;99.90;;;11.44;100.00;100994.63;4170438;28;20022;-71
2022/12/24 06:17:38;;;;;;;25.17;4.30;;;12.30;99.90;;;11.42;100.00;100991.31;4169639;28;20500;-71
2022/12/24 06:19:38;;;;;;;25.77;4.03;;;12.30;99.90;;;11.47;100.00;100985.56;4170978;28;20037;-71
2022/12/24 06:21:39;;;;;;;24.90;5.43;;;12.30;99.90;;;11.42;100.00;100979.91;4170831;28;20583;-71
2022/12/24 06:23:43;;;;;;;21.60;4.90;;;12.30;99.90;;;11.45;100.00;100982.25;4153154;28;20022;-71
2022/12/24 06:25:44;;;;;;;22.83;3.78;;;12.30;99.90;;;11.44;100.00;100985.91;4169489;28;20498;-71
2022/12/24 06:27:45;;;;;;;17.77;4.22;;;12.30;99.90;;;11.41;100.00;100978.28;4158942;28;20432;-71
2022/12/24 06:29:46;;;;;;;20.17;4.18;;;12.30;99.90;;;11.44;100.00;100978.78;4170675;28;20028;-71
2022/12/24 06:31:46;;;;;;;23.95;5.13;;;12.30;99.90;;;11.45;100.00;100975.16;4170581;28;20132;-71
2022/12/24 06:33:48;;;;;;;25.63;4.70;;;12.30;99.90;;;11.43;100.00;100976.31;4169272;28;20029;-71
2022/12/24 06:35:49;;;;;;;22.38;3.70;;;12.30;99.90;;;11.40;100.00;100966.03;4170789;28;20030;-71
2022/12/24 06:37:50;;;;;;;20.88;3.70;;;12.30;99.90;;;11.43;100.00;100977.13;4169481;28;20076;-71
2022/12/24 06:39:50;;;;;;;35.17;8.35;;;12.30;99.90;;;11.41;100.00;100989.66;4169132;28;20033;-71
2022/12/24 06:41:51;;;;;;;25.73;4.70;;;12.30;99.90;;;11.46;100.00;100987.38;4170402;28;20507;-71
2022/12/24 06:43:53;;;;;;;29.27;5.05;;;12.30;99.90;;;11.46;100.00;100989.19;4170598;28;20076;-71
2022/12/24 06:45:53;;;;;;;25.58;4.43;;;12.30;99.90;;;11.43;100.00;100992.16;4169074;28;20022;-71
2022/12/24 06:47:54;;;;;;;21.33;4.32;;;12.30;99.90;;;11.48;100.00;100985.41;4169402;28;20117;-71
2022/12/24 06:49:55;;;;;;;19.67;3.15;;;12.30;99.90;;;11.44;100.00;100985.91;4170484;28;20026;-71
2022/12/24 06:51:56;;;;;;;24.50;3.95;;;12.30;99.90;;;11.40;100.00;100985.38;4169275;28;20033;-71
2022/12/24 06:53:57;;;;;;;15.75;2.78;;;12.30;99.90;;;11.44;100.00;100989.34;4164162;28;20103;-71
2022/12/24 06:56:07;;;;;;;20.85;3.13;;;12.30;99.90;;;11.40;100.00;100988.00;4162044;28;20022;-71
2022/12/24 06:58:08;;;;;;;30.15;5.97;;;12.30;99.90;;;11.41;100.00;100994.13;4170244;28;20033;-71
2022/12/24 07:00:11;;;;;;;23.02;3.35;;;12.30;99.90;;;11.46;100.00;100992.66;4169158;28;20156;-71
2022/12/24 07:02:12;;;;;;;22.00;4.45;;;12.30;99.90;;;11.44;100.00;100988.53;4168788;28;20040;-71
2022/12/24 07:04:13;;;;;;;22.73;3.78;;;12.30;99.90;;;11.42;100.00;100991.31;4169201;28;20022;-71
2022/12/24 07:06:20;;;;;;;28.92;4.68;;;12.30;99.90;;;11.38;100.00;100989.16;4170093;28;20026;-71
2022/12/24 07:08:21;;;;;;;22.75;3.50;;;12.20;99.90;;;11.37;100.00;100990.13;4169250;28;20076;-71
2022/12/24 07:10:22;;;;;;;19.23;3.58;;;12.20;99.90;;;11.37;100.00;100998.06;4170373;28;20022;-71
2022/12/24 07:12:23;;;;;;;21.42;3.17;;;12.20;99.90;;;11.33;100.00;100996.69;4170115;28;20485;-71
2022/12/24 07:14:24;;;;;;;19.65;3.83;;;12.20;99.90;;;11.32;100.00;101001.13;4169805;28;20029;-71
2022/12/24 07:16:25;;;;;;;23.92;2.72;;;12.20;99.90;;;11.32;100.00;101005.63;4168566;28;20042;-71
2022/12/24 07:18:25;;;;;;;23.33;4.45;;;12.20;99.90;;;11.36;100.00;101012.22;4169921;28;20033;-71
2022/12/24 07:20:26;;;;;;;23.45;2.90;;;12.20;99.90;;;11.35;100.00;101015.88;4170022;28;20079;-71
2022/12/24 07:22:27;;;;;;;25.25;4.40;;;12.10;99.90;;;11.35;100.00;101010.59;4169746;28;20444;-71
2022/12/24 07:24:28;;;;;;;23.55;3.58;;;12.10;99.90;;;11.28;100.00;101005.09;4169964;28;20033;-71
2022/12/24 07:26:29;;;;;;;34.10;3.72;;;12.10;99.90;;;11.24;100.00;101008.19;4169853;28;20436;-71
2022/12/24 07:28:30;;;;;;;20.25;2.67;;;12.10;99.90;;;11.23;100.00;101012.63;4168812;28;20029;-71
2022/12/24 07:30:31;;;;;;;26.02;4.50;;;12.10;99.90;;;11.23;100.00;101027.66;4169555;28;20026;-71
2022/12/24 07:32:32;;;;;;;21.48;3.33;;;12.10;99.90;;;11.21;100.00;101019.88;4168575;28;20029;-71
2022/12/24 07:34:33;;;;;;;25.02;4.40;;;12.10;99.90;;;11.21;100.00;101019.03;4168575;28;20037;-71
2022/12/24 07:36:34;;;;;;;20.45;3.65;;;12.10;99.90;;;11.26;100.00;101019.44;4169823;28;20030;-70
2022/12/24 07:38:36;;;;;;;17.42;3.83;;;12.10;99.90;;;11.22;100.00;101012.78;4169674;28;20078;-71
2022/12/24 07:40:37;;;;;;;22.95;3.60;;;12.10;99.90;;;11.26;100.00;101011.50;4168457;28;20045;-71
2022/12/24 07:42:38;;;;;;;23.08;3.63;;;12.10;99.90;;;11.25;100.00;101015.13;4151993;28;20022;-71
2022/12/24 07:44:39;;;;;;;23.30;4.10;;;12.10;99.90;;;11.24;100.00;101016.09;4168254;28;20053;-71
2022/12/24 07:46:40;;;;;;;16.17;4.53;;;12.10;99.90;;;11.20;100.00;101018.22;4169357;28;20026;-71
2022/12/24 07:48:41;;;;;;;22.48;5.15;;;12.00;99.90;;;11.20;100.00;101027.97;4168194;28;20018;-71
2022/12/24 07:50:42;;;;;;;18.02;3.47;;;12.00;99.90;;;11.17;100.00;101020.34;4169418;28;20025;-71
2022/12/24 07:52:43;;;;;;;19.63;2.50;;;12.00;99.90;;;11.21;100.00;101030.44;4167893;28;20083;-71
2022/12/24 07:54:44;;;;;;;25.48;3.55;;;12.00;99.90;;;11.16;100.00;101021.31;4168721;28;20398;-71
2022/12/24 07:56:45;;;;;;;25.08;4.85;;;12.00;99.90;;;11.11;100.00;101019.97;4168036;28;20038;-71
2022/12/24 07:58:46;;;;;;;16.60;3.65;;;12.00;99.90;;;11.13;100.00;101030.38;4168224;28;20378;-71
2022/12/24 08:00:47;;;;;;;27.63;4.53;;;12.00;99.90;;;11.06;100.00;101031.97;4169187;28;20040;-71
2022/12/24 08:02:48;;;;;;;22.17;3.42;;;12.00;99.90;;;11.12;100.00;101031.34;4169334;28;20080;-71
2022/12/24 08:04:48;;;;;;;21.70;3.10;;;12.00;99.90;;;11.07;100.00;101025.72;4167897;28;20021;-71
2022/12/24 08:06:49;;;;;;;17.75;2.88;;;12.00;99.90;;;11.10;100.00;101042.09;4151618;28;20121;-71
2022/12/24 08:08:50;;;;;;;22.83;3.85;;;12.00;99.90;;;11.13;100.00;101034.84;4167845;28;20029;-71
2022/12/24 08:10:51;;;;;;;25.13;3.55;;;12.00;99.90;;;11.21;100.00;101050.72;4168077;28;20068;-71
2022/12/24 08:12:52;;;;;;;18.10;3.28;;;11.90;99.90;;;11.17;100.00;101052.84;4169041;28;20037;-71
2022/12/24 08:14:53;;;;;;;25.60;3.47;;;12.00;99.90;;;11.19;100.00;101053.53;4167648;28;20103;-71
2022/12/24 08:16:54;;;;;;;24.20;3.92;;;12.00;99.90;;;11.22;100.00;101047.97;4168817;28;20072;-71
2022/12/24 08:18:55;;;;;;;24.55;4.10;;;12.00;99.90;;;11.22;100.00;101050.59;4169047;28;20026;-71
2022/12/24 08:20:55;;;;;;;19.63;3.40;;;12.10;99.90;;;11.27;100.00;101036.91;4168933;28;20029;-71
2022/12/24 08:22:56;;;;;;;17.98;3.20;;;12.10;99.90;;;11.26;100.00;101037.91;4169143;28;20036;-70
2022/12/24 08:24:57;;;;;;;18.85;3.22;;;12.10;99.90;;;11.23;100.00;101043.50;4167999;28;20513;-71
2022/12/24 08:26:58;;;;;;;22.80;3.17;;;12.10;99.90;;;11.22;100.00;101047.97;4168951;28;20053;-71
2022/12/24 08:28:59;;;;;;;16.70;4.13;;;12.10;99.90;;;11.20;100.00;101046.47;4168760;28;20032;-71
2022/12/24 08:31:00;;;;;;;26.35;4.68;;;12.10;99.90;;;11.21;100.00;101045.44;4168982;28;20060;-71
2022/12/24 08:33:01;;;;;;;19.17;3.20;;;12.10;99.90;;;11.21;100.00;101032.25;4168629;28;20448;-71
2022/12/24 08:35:02;;;;;;;22.45;3.97;;;12.00;99.90;;;11.21;100.00;101051.56;4168753;28;20112;-71